Saltar para o conteúdo principal

Santa Maria (Aeródromo)

ID 1200515 · 36.9672, -25.1679 mapa

Última leitura · 2026-05-09 19:00 (Europe/Lisbon)

Temperatura
15.7 °C
Humidade
75 %
Pressão
1,015.2 hPa
Precipitação
0.0 mm
Radiação
1,775 W/m²
Velocidade do vento
36.4 km/h
Direcção do vento
N · Norte

Histórico de 24 horas

Hora (Europe/Lisbon) Temperatura Humidade Pressão Chuva Vento Direcção
2026-05-09 19:00 15.7 °C 75 % 1,015.2 0.0 mm 36.4 km/h N
2026-05-09 18:00 13.7 °C 90 % 1,015.3 3.2 mm 39.6 km/h N
2026-05-09 17:00 15.1 °C 72 % 1,015.7 0.2 mm 34.9 km/h NW
2026-05-09 16:00 15.4 °C 64 % 1,016.0 0.0 mm 37.4 km/h NW
2026-05-09 15:00 16.4 °C 54 % 1,016.1 0.0 mm 47.5 km/h NW
2026-05-09 14:00 16.3 °C 49 % 1,016.4 0.0 mm 41.0 km/h NW
2026-05-09 13:00 15.6 °C 55 % 1,016.4 0.0 mm 40.0 km/h N
2026-05-09 12:00 15.0 °C 58 % 1,016.3 0.0 mm 34.2 km/h N
2026-05-09 11:00 13.7 °C 66 % 1,016.3 0.0 mm 37.1 km/h N
2026-05-09 10:00 12.3 °C 74 % 1,016.1 0.1 mm 32.4 km/h N
2026-05-09 09:00 12.2 °C 77 % 1,015.8 0.4 mm 32.8 km/h N
2026-05-09 08:00 12.5 °C 71 % 1,015.2 0.0 mm 29.2 km/h N
2026-05-09 07:00 12.5 °C 71 % 1,015.1 0.0 mm 30.2 km/h
2026-05-09 06:00 12.6 °C 71 % 1,015.2 0.0 mm 36.4 km/h N
2026-05-09 05:00 12.7 °C 72 % 1,015.2 0.0 mm 36.4 km/h
2026-05-09 04:00 12.6 °C 82 % 1,015.4 0.9 mm 33.1 km/h N
2026-05-09 03:00 13.6 °C 72 % 1,015.6 0.0 mm 28.4 km/h N
2026-05-09 02:00 13.8 °C 79 % 1,015.9 0.0 mm 32.0 km/h
2026-05-09 01:00 14.0 °C 79 % 1,015.9 0.0 mm 34.9 km/h N
2026-05-09 00:00 14.0 °C 80 % 1,015.8 0.0 mm 36.4 km/h N
2026-05-08 23:00 14.6 °C 79 % 1,015.3 0.0 mm 41.0 km/h N
2026-05-08 22:00 14.9 °C 78 % 1,014.7 0.0 mm 37.4 km/h N
2026-05-08 21:00 16.0 °C 73 % 1,014.3 0.0 mm 39.6 km/h N
2026-05-08 20:00 16.8 °C 68 % 1,013.9 0.0 mm 35.3 km/h N